createdAt,value
2018-08-04T00:00:33.641Z,9.70
2018-08-04T00:01:33.828Z,10.50
2018-08-04T00:02:34.019Z,9.30
2018-08-04T00:03:34.209Z,9.90
2018-08-04T00:04:34.392Z,9.50
2018-08-04T00:05:34.589Z,9.20
2018-08-04T00:06:34.799Z,9.30
2018-08-04T00:07:34.973Z,9.80
2018-08-04T00:08:35.141Z,9.90
2018-08-04T00:09:35.325Z,10.20
2018-08-04T00:10:35.512Z,10.70
2018-08-04T00:11:35.698Z,10.20
2018-08-04T00:12:36.526Z,10.50
2018-08-04T00:13:36.917Z,10.10
2018-08-04T00:14:36.920Z,10.20
2018-08-04T00:15:36.431Z,10.20
2018-08-04T00:16:36.683Z,10.40
2018-08-04T00:17:36.826Z,10.30
2018-08-04T00:18:37.008Z,10.20
2018-08-04T00:19:37.265Z,11.00
2018-08-04T00:20:37.387Z,10.40
2018-08-04T00:21:37.600Z,10.90
2018-08-04T00:22:37.805Z,10.90
2018-08-04T00:23:38.011Z,10.40
2018-08-04T00:24:38.932Z,10.50
2018-08-04T00:25:38.397Z,10.70
2018-08-04T00:26:38.581Z,10.80
2018-08-04T00:27:38.790Z,10.40
2018-08-04T00:28:38.980Z,10.30
2018-08-04T00:29:39.179Z,10.50
2018-08-04T00:30:39.374Z,10.50
2018-08-04T00:31:39.536Z,10.80
2018-08-04T00:32:39.712Z,10.40
2018-08-04T00:33:39.891Z,10.60
2018-08-04T00:34:40.067Z,10.30
2018-08-04T00:35:40.251Z,10.10
2018-08-04T00:36:40.440Z,10.40
2018-08-04T00:37:40.616Z,10.60
2018-08-04T00:38:40.830Z,10.70
2018-08-04T00:39:41.009Z,10.90
2018-08-04T00:40:41.196Z,10.50
2018-08-04T00:41:41.386Z,10.30
2018-08-04T00:42:41.573Z,10.10
2018-08-04T00:43:41.761Z,10.30
2018-08-04T00:44:41.956Z,10.10
2018-08-04T00:45:42.130Z,9.90
2018-08-04T00:46:42.324Z,10.00
2018-08-04T00:47:42.511Z,10.00
2018-08-04T00:48:42.696Z,10.10
2018-08-04T00:49:42.877Z,10.40
2018-08-04T00:50:43.063Z,10.20
2018-08-04T00:51:43.252Z,10.60
2018-08-04T00:52:43.439Z,10.60
2018-08-04T00:53:43.625Z,10.90
2018-08-04T00:54:43.796Z,12.10
2018-08-04T00:55:43.965Z,11.70
2018-08-04T00:56:44.152Z,12.00
2018-08-04T00:57:44.351Z,11.90
2018-08-04T00:58:44.549Z,11.80
2018-08-04T00:59:44.756Z,12.40
2018-08-04T01:00:45.012Z,12.60
2018-08-04T01:01:45.175Z,13.10
2018-08-04T01:02:45.391Z,13.90
2018-08-04T01:03:45.605Z,13.60
2018-08-04T01:04:45.791Z,14.20
2018-08-04T01:05:45.975Z,13.60
2018-08-04T01:06:46.936Z,13.00
2018-08-04T01:07:46.419Z,13.40
2018-08-04T01:08:46.626Z,13.40
2018-08-04T01:09:46.890Z,12.10
2018-08-04T01:10:47.015Z,13.30
2018-08-04T01:11:47.156Z,11.70
2018-08-04T01:12:47.951Z,12.60
2018-08-04T01:13:47.577Z,13.00
2018-08-04T01:14:47.712Z,12.80
2018-08-04T01:15:47.887Z,12.90
2018-08-04T01:16:48.129Z,12.70
2018-08-04T01:17:48.282Z,12.90
2018-08-04T01:18:48.515Z,11.60
2018-08-04T01:19:48.709Z,12.30
2018-08-04T01:20:48.891Z,13.00
2018-08-04T01:21:49.067Z,12.20
2018-08-04T01:22:49.255Z,12.40
2018-08-04T01:23:49.441Z,12.10
2018-08-04T01:24:50.438Z,11.70
2018-08-04T01:25:49.840Z,11.90
2018-08-04T01:26:50.111Z,11.90
2018-08-04T01:27:50.169Z,11.90
2018-08-04T01:28:50.399Z,12.00
2018-08-04T01:29:50.686Z,12.00
2018-08-04T01:30:50.804Z,12.70
2018-08-04T01:31:50.989Z,11.80
2018-08-04T01:32:51.947Z,11.90
2018-08-04T01:33:51.942Z,12.40
2018-08-04T01:34:51.532Z,12.50
2018-08-04T01:35:52.444Z,12.20
2018-08-04T01:36:52.442Z,12.30
2018-08-04T01:37:52.100Z,12.30
2018-08-04T01:38:52.349Z,12.10
2018-08-04T01:39:52.539Z,12.30
2018-08-04T01:40:52.764Z,12.50
2018-08-04T01:41:52.959Z,12.40
2018-08-04T01:42:54.443Z,12.60
2018-08-04T01:43:53.363Z,12.40
2018-08-04T01:44:53.530Z,11.90
2018-08-04T01:45:53.723Z,13.00
2018-08-04T01:46:53.915Z,12.40
2018-08-04T01:48:01.020Z,12.20
2018-08-04T01:48:54.344Z,12.60
2018-08-04T01:51:37.251Z,12.20
2018-08-04T01:52:37.446Z,12.50
2018-08-04T01:53:37.657Z,12.50
2018-08-04T01:54:37.812Z,12.40
2018-08-04T01:55:38.001Z,12.60
2018-08-04T01:56:38.187Z,12.20
2018-08-04T01:57:38.374Z,12.60
2018-08-04T01:58:38.552Z,13.20
2018-08-04T01:59:38.733Z,12.60
2018-08-04T02:00:38.931Z,12.90
2018-08-04T02:01:39.149Z,13.30
2018-08-04T02:02:39.311Z,13.00
2018-08-04T02:03:39.473Z,13.60
2018-08-04T02:04:39.712Z,13.00
2018-08-04T02:05:39.909Z,12.40
2018-08-04T02:06:40.071Z,13.60
2018-08-04T02:07:40.334Z,13.40
2018-08-04T02:08:40.488Z,13.80
2018-08-04T02:09:40.725Z,13.50
2018-08-04T02:12:23.519Z,12.60
2018-08-04T02:13:23.710Z,13.00
2018-08-04T02:14:23.901Z,13.70
2018-08-04T02:15:24.088Z,14.40
2018-08-04T02:16:24.250Z,13.70
2018-08-04T02:17:24.469Z,13.60
2018-08-04T02:18:24.656Z,13.80
2018-08-04T02:19:24.843Z,14.50
2018-08-04T02:20:25.018Z,13.70
2018-08-04T02:21:25.197Z,12.90
2018-08-04T02:22:25.388Z,13.30
2018-08-04T02:23:25.584Z,12.60
2018-08-04T02:24:25.789Z,12.80
2018-08-04T02:25:25.970Z,13.10
2018-08-04T02:26:26.174Z,13.70
2018-08-04T02:27:26.366Z,14.10
2018-08-04T02:28:26.547Z,12.80
2018-08-04T02:29:26.736Z,13.60
2018-08-04T02:30:26.909Z,13.80
2018-08-04T02:31:27.109Z,13.70
2018-08-04T02:32:27.304Z,14.30
2018-08-04T02:33:27.480Z,14.00
2018-08-04T02:34:27.671Z,13.60
2018-08-04T02:35:27.845Z,14.20
2018-08-04T02:36:28.030Z,14.00
2018-08-04T02:37:28.214Z,13.90
2018-08-04T02:38:28.394Z,13.40
2018-08-04T02:39:28.564Z,13.70
2018-08-04T02:40:28.761Z,13.60
2018-08-04T02:41:28.933Z,14.40
2018-08-04T02:42:29.109Z,13.50
2018-08-04T02:43:29.287Z,13.50
2018-08-04T02:44:29.458Z,14.50
2018-08-04T02:45:29.645Z,14.40
2018-08-04T02:46:31.419Z,14.00
2018-08-04T02:47:29.976Z,14.50
2018-08-04T02:48:30.146Z,14.40
2018-08-04T02:49:30.345Z,14.10
2018-08-04T02:50:30.632Z,14.30
2018-08-04T02:51:30.707Z,15.50
2018-08-04T02:52:30.959Z,15.30
2018-08-04T02:53:31.038Z,18.50
2018-08-04T02:54:31.229Z,17.60
2018-08-04T02:55:31.931Z,17.00
2018-08-04T02:56:31.756Z,16.40
2018-08-04T02:57:31.894Z,17.10
2018-08-04T02:58:32.121Z,16.40
2018-08-04T02:59:32.258Z,15.90
2018-08-04T03:00:32.448Z,15.30
2018-08-04T03:01:32.674Z,15.30
2018-08-04T03:02:32.795Z,16.00
2018-08-04T03:03:32.869Z,16.60
2018-08-04T03:04:33.076Z,16.60
2018-08-04T03:05:33.268Z,17.10
2018-08-04T03:06:33.463Z,17.30
2018-08-04T03:07:33.618Z,17.50
2018-08-04T03:08:33.857Z,17.80
2018-08-04T03:09:34.048Z,16.60
2018-08-04T03:10:34.229Z,16.40
2018-08-04T03:11:34.404Z,15.90
2018-08-04T03:12:34.604Z,16.60
2018-08-04T03:15:17.613Z,17.20
2018-08-04T03:16:17.781Z,17.20
2018-08-04T03:17:17.946Z,16.40
2018-08-04T03:18:18.108Z,16.70
2018-08-04T03:19:18.265Z,16.80
2018-08-04T03:20:19.067Z,15.60
2018-08-04T03:21:18.604Z,15.70
2018-08-04T03:22:18.768Z,15.80
2018-08-04T03:23:18.957Z,15.60
2018-08-04T03:24:19.107Z,15.10
2018-08-04T03:25:20.017Z,14.50
2018-08-04T03:26:20.013Z,14.80
2018-08-04T03:27:19.645Z,15.40
2018-08-04T03:28:20.464Z,15.30
2018-08-04T03:29:19.970Z,15.60
2018-08-04T03:30:20.136Z,15.20
2018-08-04T03:31:20.237Z,15.60
2018-08-04T03:32:21.412Z,15.50
2018-08-04T03:33:21.413Z,14.90
2018-08-04T03:34:20.986Z,15.50
2018-08-04T03:35:21.151Z,15.50
2018-08-04T03:36:21.353Z,16.30
2018-08-04T03:37:21.519Z,16.00
2018-08-04T03:38:21.726Z,15.40
2018-08-04T03:39:22.457Z,15.50
2018-08-04T03:40:22.011Z,16.90
2018-08-04T03:43:04.810Z,17.70
2018-08-04T03:44:04.994Z,17.10
2018-08-04T03:45:05.187Z,16.80
2018-08-04T03:46:05.373Z,16.30
2018-08-04T03:47:05.558Z,16.80
2018-08-04T03:48:05.748Z,16.60
2018-08-04T03:49:05.934Z,16.30
2018-08-04T03:50:06.121Z,15.70
2018-08-04T03:51:06.309Z,16.70
2018-08-04T03:52:06.495Z,16.00
2018-08-04T03:53:06.684Z,16.10
2018-08-04T03:54:06.870Z,16.40
2018-08-04T03:55:07.446Z,16.80
2018-08-04T03:56:07.272Z,16.50
2018-08-04T03:57:07.475Z,16.70
2018-08-04T03:58:07.635Z,16.20
2018-08-04T03:59:07.824Z,16.20
2018-08-04T04:00:07.987Z,16.60
2018-08-04T04:01:08.161Z,15.50
2018-08-04T04:02:08.346Z,15.80
2018-08-04T04:03:08.535Z,15.70
2018-08-04T04:04:08.728Z,16.20
2018-08-04T04:05:08.900Z,16.10
2018-08-04T04:06:09.110Z,16.40
2018-08-04T04:07:09.292Z,15.80
2018-08-04T04:08:09.472Z,16.10
2018-08-04T04:09:09.658Z,16.40
2018-08-04T04:10:09.886Z,15.60
2018-08-04T04:11:10.715Z,15.80
2018-08-04T04:12:10.255Z,15.80
2018-08-04T04:13:10.496Z,16.30
2018-08-04T04:14:10.616Z,15.70
2018-08-04T04:15:10.805Z,15.90
2018-08-04T04:16:11.009Z,14.80
2018-08-04T04:17:11.179Z,15.80
2018-08-04T04:18:11.425Z,15.70
2018-08-04T04:19:11.637Z,15.60
2018-08-04T04:20:11.796Z,16.30
2018-08-04T04:22:55.060Z,16.10
2018-08-04T04:23:54.747Z,15.40
2018-08-04T04:24:54.932Z,15.30
2018-08-04T04:25:55.124Z,15.10
2018-08-04T04:26:55.312Z,16.20
2018-08-04T04:27:55.496Z,16.00
2018-08-04T04:28:55.684Z,16.10
2018-08-04T04:29:55.870Z,15.10
2018-08-04T04:30:56.053Z,16.30
2018-08-04T04:31:56.213Z,16.40
2018-08-04T04:32:56.402Z,16.00
2018-08-04T04:33:56.582Z,16.50
2018-08-04T04:34:56.775Z,16.20
2018-08-04T04:35:56.947Z,16.30
2018-08-04T04:36:57.156Z,16.40
2018-08-04T04:37:57.338Z,16.10
2018-08-04T04:38:57.545Z,16.00
2018-08-04T04:39:57.727Z,16.20
2018-08-04T04:40:57.923Z,16.50
2018-08-04T04:41:58.122Z,16.10
2018-08-04T04:44:41.033Z,16.30
2018-08-04T04:45:41.207Z,15.70
2018-08-04T04:46:41.391Z,15.80
2018-08-04T04:47:41.577Z,15.30
2018-08-04T04:48:41.759Z,15.70
2018-08-04T04:49:41.943Z,15.50
2018-08-04T04:50:42.133Z,15.80
2018-08-04T04:51:42.324Z,14.50
2018-08-04T04:52:42.505Z,15.20
2018-08-04T04:53:42.684Z,15.00
2018-08-04T04:54:42.857Z,16.30
2018-08-04T04:55:43.047Z,16.40
2018-08-04T04:56:43.230Z,16.90
2018-08-04T04:57:43.438Z,16.70
2018-08-04T04:58:43.637Z,17.30
2018-08-04T04:59:43.813Z,16.60
2018-08-04T05:00:44.006Z,18.40
2018-08-04T05:01:44.198Z,19.10
2018-08-04T05:02:44.378Z,19.00
2018-08-04T05:03:44.590Z,20.70
2018-08-04T05:04:44.776Z,20.90
2018-08-04T05:05:44.983Z,20.30
2018-08-04T05:06:45.182Z,21.40
2018-08-04T05:07:45.368Z,21.50
2018-08-04T05:08:45.574Z,21.80
2018-08-04T05:09:45.749Z,20.50
2018-08-04T05:10:45.959Z,21.80
2018-08-04T05:11:46.125Z,22.20
2018-08-04T05:12:46.304Z,21.90
2018-08-04T05:13:46.498Z,22.70
2018-08-04T05:14:46.702Z,23.60
2018-08-04T05:15:46.872Z,24.00
2018-08-04T05:16:47.120Z,24.00
2018-08-04T05:17:47.271Z,23.20
2018-08-04T05:18:47.450Z,24.30
2018-08-04T05:19:47.667Z,24.40
2018-08-04T05:20:47.862Z,26.00
2018-08-04T05:21:48.054Z,25.90
2018-08-04T05:22:48.247Z,26.10
2018-08-04T05:23:48.447Z,25.80
2018-08-04T05:24:48.625Z,26.40
2018-08-04T05:25:48.815Z,24.50
2018-08-04T05:26:49.029Z,24.30
2018-08-04T05:27:49.188Z,24.80
2018-08-04T05:28:49.380Z,26.00
2018-08-04T05:29:49.583Z,24.60
2018-08-04T05:30:49.771Z,22.50
2018-08-04T05:31:49.974Z,21.90
2018-08-04T05:32:50.254Z,19.30
2018-08-04T05:33:50.381Z,19.90
2018-08-04T05:34:50.582Z,22.30
2018-08-04T05:35:51.462Z,22.50
2018-08-04T05:36:50.933Z,26.20
2018-08-04T05:37:51.140Z,23.80
2018-08-04T05:38:51.950Z,24.70
2018-08-04T05:39:52.451Z,26.90
2018-08-04T05:40:51.725Z,26.90
2018-08-04T05:41:52.450Z,24.90
2018-08-04T05:42:52.160Z,24.10
2018-08-04T05:45:35.934Z,29.80
2018-08-04T05:46:36.120Z,32.80
2018-08-04T05:47:36.315Z,40.00
2018-08-04T05:48:36.515Z,41.70
2018-08-04T05:49:36.709Z,42.50
2018-08-04T05:50:36.910Z,50.20
2018-08-04T05:51:37.089Z,44.50
2018-08-04T05:52:37.280Z,56.70
2018-08-04T05:53:37.465Z,58.20
2018-08-04T05:54:37.673Z,54.60
2018-08-04T05:55:37.844Z,55.70
2018-08-04T05:56:38.049Z,62.50
2018-08-04T05:57:38.219Z,63.00
2018-08-04T05:58:38.412Z,62.50
2018-08-04T05:59:38.599Z,60.80
2018-08-04T06:00:38.852Z,61.80
2018-08-04T06:01:38.973Z,65.40
2018-08-04T06:02:39.164Z,61.90
2018-08-04T06:03:39.363Z,60.60
2018-08-04T06:04:40.578Z,61.20
2018-08-04T06:05:39.767Z,58.50
2018-08-04T06:06:39.965Z,56.50
2018-08-04T06:07:40.151Z,56.50
2018-08-04T06:08:40.398Z,50.50
2018-08-04T06:09:40.490Z,40.80
2018-08-04T06:10:40.696Z,45.30
2018-08-04T06:11:40.893Z,43.10
2018-08-04T06:12:41.152Z,33.60
2018-08-04T06:13:41.328Z,30.90
2018-08-04T06:14:41.541Z,27.20
2018-08-04T06:15:41.793Z,25.00
2018-08-04T06:16:42.006Z,24.00
2018-08-04T06:17:42.248Z,23.30
2018-08-04T06:18:42.415Z,22.20
2018-08-04T06:19:42.482Z,22.90
2018-08-04T06:20:42.664Z,21.20
2018-08-04T06:21:42.856Z,19.80
2018-08-04T06:22:43.051Z,19.00
2018-08-04T06:23:43.253Z,19.10
2018-08-04T06:24:43.427Z,19.60
2018-08-04T06:25:43.624Z,18.30
2018-08-04T06:26:43.811Z,18.40
2018-08-04T06:27:44.005Z,19.30
2018-08-04T06:28:44.198Z,17.50
2018-08-04T06:29:44.412Z,18.40
2018-08-04T06:30:44.604Z,19.00
2018-08-04T06:31:44.793Z,17.70
2018-08-04T06:32:45.010Z,19.10
2018-08-04T06:33:45.206Z,18.00
2018-08-04T06:34:45.410Z,18.80
2018-08-04T06:35:45.598Z,18.90
2018-08-04T06:36:45.785Z,19.90
2018-08-04T06:37:46.005Z,19.70
2018-08-04T06:38:46.203Z,19.10
2018-08-04T06:39:46.413Z,19.20
2018-08-04T06:40:46.609Z,16.20
2018-08-04T06:41:46.880Z,17.90
2018-08-04T06:42:47.007Z,17.40
2018-08-04T06:43:47.204Z,16.30
2018-08-04T06:44:47.397Z,16.70
2018-08-04T06:45:47.596Z,17.40
2018-08-04T06:46:47.822Z,16.50
2018-08-04T06:47:48.011Z,17.20
2018-08-04T06:48:48.202Z,15.30
2018-08-04T06:49:48.391Z,15.90
2018-08-04T06:50:48.581Z,15.90
2018-08-04T06:51:48.778Z,14.50
2018-08-04T06:52:48.976Z,16.20
2018-08-04T06:53:49.172Z,17.20
2018-08-04T06:54:49.367Z,15.00
2018-08-04T06:55:49.618Z,14.60
2018-08-04T06:56:49.793Z,14.10
2018-08-04T06:57:49.957Z,13.40
2018-08-04T06:58:50.148Z,14.40
2018-08-04T06:59:50.396Z,14.50
2018-08-04T07:00:50.679Z,15.90
2018-08-04T07:01:51.517Z,14.00
2018-08-04T07:02:50.950Z,14.60
2018-08-04T07:03:51.139Z,14.70
2018-08-04T07:04:51.334Z,15.80
2018-08-04T07:05:51.584Z,15.10
2018-08-04T07:06:51.692Z,14.50
2018-08-04T07:07:52.549Z,13.90
2018-08-04T07:08:52.159Z,14.60
2018-08-04T07:09:53.062Z,14.80
2018-08-04T07:10:52.398Z,13.40
2018-08-04T07:11:52.587Z,14.00
2018-08-04T07:12:52.779Z,14.00
2018-08-04T07:15:35.720Z,12.70
2018-08-04T07:16:35.929Z,12.10
2018-08-04T07:17:36.142Z,13.80
2018-08-04T07:18:36.346Z,11.80
2018-08-04T07:19:36.536Z,12.40
2018-08-04T07:20:36.731Z,12.80
2018-08-04T07:21:36.918Z,12.40
2018-08-04T07:22:37.099Z,11.90
2018-08-04T07:23:37.284Z,11.80
2018-08-04T07:24:37.482Z,12.00
2018-08-04T07:25:37.680Z,11.80
2018-08-04T07:26:37.878Z,11.50
2018-08-04T07:27:38.067Z,10.80
2018-08-04T07:28:38.274Z,10.80
2018-08-04T07:29:38.477Z,11.00
2018-08-04T07:30:38.660Z,11.50
2018-08-04T07:31:38.870Z,11.40
2018-08-04T07:32:39.078Z,10.70
2018-08-04T07:33:39.274Z,11.00
2018-08-04T07:34:39.470Z,11.00
2018-08-04T07:35:39.672Z,11.60
2018-08-04T07:36:39.857Z,10.90
2018-08-04T07:37:40.035Z,10.60
2018-08-04T07:38:40.237Z,11.40
2018-08-04T07:39:40.431Z,11.50
2018-08-04T07:40:40.634Z,11.30
2018-08-04T07:41:40.821Z,11.90
2018-08-04T07:42:41.100Z,11.60
2018-08-04T07:43:41.180Z,12.10
2018-08-04T07:44:41.385Z,11.60
2018-08-04T07:45:41.582Z,12.30
2018-08-04T07:46:41.813Z,12.00
2018-08-04T07:47:41.988Z,12.10
2018-08-04T07:48:42.228Z,10.90
2018-08-04T07:49:42.433Z,11.50
2018-08-04T07:50:43.114Z,11.20
2018-08-04T07:51:42.915Z,11.60
2018-08-04T07:52:43.121Z,12.10
2018-08-04T07:55:26.538Z,11.00
2018-08-04T07:56:26.238Z,11.90
2018-08-04T07:57:26.438Z,11.30
2018-08-04T07:58:26.636Z,11.10
2018-08-04T07:59:26.884Z,10.90
2018-08-04T08:00:27.030Z,11.40
2018-08-04T08:01:27.243Z,11.80
2018-08-04T08:02:27.438Z,11.30
2018-08-04T08:03:27.658Z,11.30
2018-08-04T08:04:27.821Z,11.50
2018-08-04T08:07:10.748Z,12.00
2018-08-04T08:08:10.946Z,12.40
2018-08-04T08:09:11.683Z,12.20
2018-08-04T08:10:11.323Z,13.30
2018-08-04T08:11:12.214Z,12.80
2018-08-04T08:12:12.661Z,12.70
2018-08-04T08:13:12.071Z,54.90
2018-08-04T08:14:12.675Z,55.40
2018-08-04T08:15:12.528Z,53.50
2018-08-04T08:16:12.620Z,54.00
2018-08-04T08:17:12.859Z,53.50
2018-08-04T08:18:13.645Z,55.20
2018-08-04T08:19:13.202Z,55.20
2018-08-04T08:20:13.391Z,51.40
2018-08-04T08:21:13.591Z,50.00
2018-08-04T08:22:13.764Z,51.70
2018-08-04T08:23:14.027Z,51.30
2018-08-04T08:24:14.216Z,49.50
2018-08-04T08:25:14.429Z,49.50
2018-08-04T08:26:14.641Z,49.00
2018-08-04T08:27:14.832Z,52.80
2018-08-04T08:28:15.029Z,50.00
2018-08-04T08:29:15.223Z,49.80
2018-08-04T08:30:15.411Z,49.00
2018-08-04T08:31:15.639Z,50.10
2018-08-04T08:32:15.790Z,50.30
2018-08-04T08:33:15.977Z,50.10
2018-08-04T08:34:16.166Z,48.90
2018-08-04T08:35:16.362Z,50.30
2018-08-04T08:36:16.556Z,50.10
2018-08-04T08:37:16.746Z,46.70
2018-08-04T08:38:16.942Z,47.40
2018-08-04T08:39:17.132Z,50.70
2018-08-04T08:40:17.320Z,53.70
2018-08-04T08:41:17.508Z,49.40
2018-08-04T08:42:17.703Z,51.20
2018-08-04T08:43:17.915Z,48.50
2018-08-04T08:44:18.079Z,49.70
2018-08-04T08:45:18.276Z,49.70
2018-08-04T08:46:18.483Z,47.60
2018-08-04T08:47:18.684Z,45.00
2018-08-04T08:48:18.876Z,48.80
2018-08-04T08:49:19.071Z,46.50
2018-08-04T08:50:19.274Z,46.60
2018-08-04T08:51:20.162Z,46.60
2018-08-04T08:52:19.643Z,43.40
2018-08-04T08:53:19.934Z,47.30
2018-08-04T08:54:20.012Z,48.10
2018-08-04T08:55:20.218Z,48.00
2018-08-04T08:56:20.432Z,44.90
2018-08-04T08:57:20.671Z,45.70
2018-08-04T08:58:21.684Z,41.70
2018-08-04T08:59:21.066Z,45.60
2018-08-04T09:00:21.261Z,46.70
2018-08-04T09:01:21.488Z,42.10
2018-08-04T09:02:21.645Z,39.90
2018-08-04T09:03:21.851Z,41.70
2018-08-04T09:04:22.129Z,40.60
2018-08-04T09:05:22.239Z,41.60
2018-08-04T09:06:23.168Z,39.80
2018-08-04T09:07:22.657Z,39.40
2018-08-04T09:08:22.853Z,40.00
2018-08-04T09:09:23.106Z,39.90
2018-08-04T09:10:23.239Z,40.00
2018-08-04T09:11:23.432Z,36.20
2018-08-04T09:12:23.624Z,42.40
2018-08-04T09:13:23.858Z,38.70
2018-08-04T09:14:24.070Z,39.20
2018-08-04T09:15:24.268Z,40.80
2018-08-04T09:16:24.461Z,42.20
2018-08-04T09:17:24.662Z,40.40
2018-08-04T09:18:24.854Z,41.50
2018-08-04T09:19:25.068Z,42.70
2018-08-04T09:20:25.231Z,36.90
2018-08-04T09:21:25.412Z,38.00
2018-08-04T09:22:25.611Z,38.70
2018-08-04T09:23:25.796Z,37.20
2018-08-04T09:24:25.995Z,38.70
2018-08-04T09:25:26.201Z,39.20
2018-08-04T09:26:26.387Z,44.00
2018-08-04T09:27:26.603Z,43.70
2018-08-04T09:28:26.799Z,41.10
2018-08-04T09:29:27.002Z,36.90
2018-08-04T09:30:27.192Z,38.10
2018-08-04T09:31:27.381Z,35.70
2018-08-04T09:32:27.570Z,36.60
2018-08-04T09:33:27.762Z,39.30
2018-08-04T09:34:27.960Z,38.00
2018-08-04T09:35:28.160Z,38.70
2018-08-04T09:36:28.336Z,38.40
2018-08-04T09:37:28.529Z,41.90
2018-08-04T09:38:28.726Z,37.70
2018-08-04T09:39:28.938Z,28.50
2018-08-04T09:40:29.149Z,32.00
2018-08-04T09:41:29.365Z,32.10
2018-08-04T09:42:29.561Z,32.10
2018-08-04T09:43:29.734Z,31.80
2018-08-04T09:44:29.942Z,30.40
2018-08-04T09:47:12.861Z,28.50
2018-08-04T09:48:14.781Z,24.40
2018-08-04T09:49:13.308Z,26.10
2018-08-04T09:50:13.505Z,26.50
2018-08-04T09:51:13.700Z,25.50
2018-08-04T09:52:13.903Z,25.00
2018-08-04T09:53:14.100Z,26.60
2018-08-04T09:54:14.291Z,27.70
2018-08-04T09:55:14.494Z,29.60
2018-08-04T09:56:14.687Z,56.20
2018-08-04T09:57:14.888Z,55.00
2018-08-04T09:58:15.092Z,59.20
2018-08-04T09:59:15.306Z,61.90
2018-08-04T10:00:15.503Z,61.60
2018-08-04T10:01:15.697Z,54.30
2018-08-04T10:02:15.913Z,56.70
2018-08-04T10:03:16.109Z,62.00
2018-08-04T10:04:16.302Z,63.50
2018-08-04T10:06:59.237Z,59.40
2018-08-04T10:07:59.435Z,60.90
2018-08-04T10:08:59.631Z,62.60
2018-08-04T10:09:59.827Z,60.50
2018-08-04T10:11:00.027Z,58.70
2018-08-04T10:12:00.219Z,63.30
2018-08-04T10:13:01.635Z,60.40
2018-08-04T10:14:00.550Z,59.20
2018-08-04T10:15:00.762Z,58.20
2018-08-04T10:16:00.937Z,58.30
2018-08-04T10:17:01.730Z,61.60
2018-08-04T10:18:01.336Z,64.10
2018-08-04T10:19:01.522Z,59.20
2018-08-04T10:20:01.736Z,62.70
2018-08-04T10:21:01.910Z,59.50
2018-08-04T10:22:02.106Z,56.80
2018-08-04T10:23:02.314Z,57.60
2018-08-04T10:24:02.561Z,57.90
2018-08-04T10:25:02.807Z,57.80
2018-08-04T10:26:02.911Z,52.10
2018-08-04T10:27:03.097Z,55.70
2018-08-04T10:28:03.310Z,56.60
2018-08-04T10:29:03.496Z,56.20
2018-08-04T10:30:03.692Z,54.00
2018-08-04T10:31:03.876Z,57.50
2018-08-04T10:32:04.097Z,53.30
2018-08-04T10:33:04.271Z,53.50
2018-08-04T10:34:04.461Z,54.20
2018-08-04T10:35:04.651Z,53.60
2018-08-04T10:36:04.847Z,55.20
2018-08-04T10:37:05.071Z,49.00
2018-08-04T10:38:05.259Z,54.60
2018-08-04T10:39:05.452Z,54.30
2018-08-04T10:40:05.635Z,51.50
2018-08-04T10:41:05.853Z,50.90
2018-08-04T10:42:06.003Z,49.20
2018-08-04T10:43:06.215Z,48.70
2018-08-04T10:44:06.409Z,48.30
2018-08-04T10:45:06.596Z,50.80
2018-08-04T10:46:06.785Z,48.60
2018-08-04T10:47:06.978Z,49.10
2018-08-04T10:48:07.188Z,46.80
2018-08-04T10:49:07.356Z,45.70
2018-08-04T10:50:07.539Z,42.40
2018-08-04T10:51:07.753Z,46.10
2018-08-04T10:52:07.956Z,46.90
2018-08-04T10:53:08.141Z,49.10
2018-08-04T10:54:08.348Z,49.90
2018-08-04T10:55:08.541Z,45.10
2018-08-04T10:56:08.751Z,50.70
2018-08-04T10:57:09.036Z,47.50
2018-08-04T10:58:09.147Z,45.40
2018-08-04T10:59:09.344Z,47.00
2018-08-04T11:00:09.544Z,45.80
2018-08-04T11:01:09.735Z,47.40
2018-08-04T11:02:09.924Z,45.20
2018-08-04T11:03:10.119Z,45.10
2018-08-04T11:04:10.312Z,46.40
2018-08-04T11:05:10.573Z,46.50
2018-08-04T11:06:10.729Z,42.80
2018-08-04T11:07:10.925Z,46.00
2018-08-04T11:08:11.121Z,38.40
2018-08-04T11:09:12.154Z,18.90
2018-08-04T11:10:11.448Z,19.00
2018-08-04T11:11:11.685Z,18.80
2018-08-04T11:12:11.931Z,18.80
2018-08-04T11:13:12.123Z,18.10
2018-08-04T11:14:12.399Z,17.50
2018-08-04T11:15:12.510Z,19.90
2018-08-04T11:16:12.708Z,18.80
2018-08-04T11:17:12.881Z,19.70
2018-08-04T11:18:13.095Z,19.70
2018-08-04T11:19:13.270Z,18.90
2018-08-04T11:20:13.460Z,19.20
2018-08-04T11:21:13.646Z,19.40
2018-08-04T11:22:13.853Z,19.60
2018-08-04T11:23:14.047Z,20.60
2018-08-04T11:24:14.314Z,20.00
2018-08-04T11:25:14.420Z,19.70
2018-08-04T11:26:14.597Z,19.30
2018-08-04T11:27:14.819Z,19.60
2018-08-04T11:28:15.010Z,20.80
2018-08-04T11:29:15.188Z,20.10
2018-08-04T11:30:15.370Z,21.70
2018-08-04T11:31:15.560Z,21.10
2018-08-04T11:32:15.743Z,22.80
2018-08-04T11:33:15.942Z,21.80
2018-08-04T11:34:16.137Z,22.00
2018-08-04T11:35:16.513Z,20.20
2018-08-04T11:36:16.572Z,19.90
2018-08-04T11:38:59.988Z,20.10
2018-08-04T11:40:04.025Z,20.60
2018-08-04T11:41:00.532Z,21.00
2018-08-04T11:42:01.448Z,20.70
2018-08-04T11:43:00.840Z,21.20
2018-08-04T11:44:00.948Z,20.90
2018-08-04T11:45:01.178Z,20.90
2018-08-04T11:46:01.891Z,6.50
2018-08-04T11:47:01.682Z,6.30
2018-08-04T11:48:02.000Z,5.70
2018-08-04T11:50:02.894Z,6.10
2018-08-04T11:51:02.577Z,6.10
2018-08-04T11:52:02.671Z,6.00
2018-08-04T11:53:02.879Z,6.00
2018-08-04T11:54:03.093Z,6.10
2018-08-04T11:55:03.304Z,6.40
2018-08-04T11:56:03.528Z,6.00
2018-08-04T11:57:04.397Z,5.90
2018-08-04T11:58:03.971Z,6.40
2018-08-04T11:59:04.185Z,5.90
2018-08-04T12:00:04.404Z,5.90
2018-08-04T12:01:04.611Z,6.10
2018-08-04T12:02:04.850Z,6.10
2018-08-04T12:03:04.995Z,6.10
2018-08-04T12:04:05.178Z,5.80
2018-08-04T12:05:05.359Z,6.10
2018-08-04T12:06:05.573Z,6.10
2018-08-04T12:07:05.756Z,5.90
2018-08-04T12:08:05.940Z,6.10
2018-08-04T12:09:06.158Z,5.80
2018-08-04T12:10:06.343Z,5.60
2018-08-04T12:11:06.549Z,6.10
2018-08-04T12:12:06.718Z,5.70
2018-08-04T12:14:50.134Z,5.90
2018-08-04T12:15:50.328Z,6.00
2018-08-04T12:16:50.522Z,5.80
2018-08-04T12:17:50.714Z,5.90
2018-08-04T12:18:50.907Z,6.20
2018-08-04T12:19:51.099Z,6.00
2018-08-04T12:20:52.053Z,5.80
2018-08-04T12:21:52.040Z,5.80
2018-08-04T12:22:51.713Z,5.80
2018-08-04T12:23:51.910Z,5.70
2018-08-04T12:24:52.112Z,5.80
2018-08-04T12:26:52.502Z,5.70
2018-08-04T12:27:53.539Z,5.70
2018-08-04T12:28:52.986Z,5.60
2018-08-04T12:29:53.248Z,5.80
2018-08-04T12:30:53.459Z,5.50
2018-08-04T12:31:53.649Z,5.80
2018-08-04T12:32:53.886Z,5.50
2018-08-04T12:33:54.074Z,5.50
2018-08-04T12:34:54.284Z,5.70
2018-08-04T12:35:54.490Z,5.60
2018-08-04T12:36:54.672Z,5.50
2018-08-04T12:37:54.871Z,5.40
2018-08-04T12:38:55.064Z,5.70
2018-08-04T12:39:55.233Z,5.50
2018-08-04T12:40:55.448Z,5.20
2018-08-04T12:41:55.656Z,5.50
2018-08-04T12:42:55.854Z,5.40
2018-08-04T12:43:56.041Z,5.30
2018-08-04T12:44:56.235Z,5.30
2018-08-04T12:45:56.429Z,5.00
2018-08-04T12:46:56.632Z,5.40
2018-08-04T12:47:56.829Z,5.00
2018-08-04T12:48:57.021Z,4.80
2018-08-04T12:49:57.206Z,4.90
2018-08-04T12:50:57.413Z,4.70
2018-08-04T12:51:57.640Z,5.00
2018-08-04T12:52:57.828Z,4.30
2018-08-04T12:53:58.024Z,4.80
2018-08-04T12:54:58.208Z,4.80
2018-08-04T12:55:58.411Z,4.70
2018-08-04T12:56:58.593Z,4.90
2018-08-04T12:57:58.776Z,4.60
2018-08-04T12:58:58.962Z,5.20
2018-08-04T12:59:59.172Z,4.90
2018-08-04T13:00:59.362Z,5.00
2018-08-04T13:01:59.557Z,5.20
2018-08-04T13:02:59.741Z,5.00
2018-08-04T13:03:59.947Z,5.40
2018-08-04T13:05:00.147Z,5.10
2018-08-04T13:06:00.376Z,5.20
2018-08-04T13:07:00.565Z,4.90
2018-08-04T13:08:00.781Z,4.80
2018-08-04T13:09:01.615Z,5.20
2018-08-04T13:10:01.138Z,4.90
2018-08-04T13:11:02.069Z,5.00
2018-08-04T13:12:01.544Z,5.10
2018-08-04T13:13:02.563Z,5.00
2018-08-04T13:14:01.992Z,5.40
2018-08-04T13:15:02.243Z,5.20
2018-08-04T13:16:02.409Z,5.30
2018-08-04T13:17:02.620Z,4.90
2018-08-04T13:18:03.562Z,5.20
2018-08-04T13:19:03.077Z,5.40
2018-08-04T13:20:03.344Z,4.90
2018-08-04T13:21:03.496Z,4.80
2018-08-04T13:22:03.765Z,5.40
2018-08-04T13:23:03.964Z,5.10
2018-08-04T13:24:04.131Z,5.00
2018-08-04T13:25:04.339Z,4.80